Time;durP1;ratioP1;P1;durP2;ratioP2;P2;SDS_P1;SDS_P2;PMS_P1;PMS_P2;Temp;Humidity;BMP_temperature;BMP_pressure;BME280_temperature;BME280_humidity;BME280_pressure;Samples;Min_cycle;Max_cycle;Signal;HPM_P1;HPM_P2
2020/12/24 00:01:10;;;;;;;5.73;2.03;;;3.90;99.90;;;;;;5072482;28;20193;-64
2020/12/24 00:03:35;;;;;;;5.37;2.37;;;3.90;99.90;;;;;;5073183;28;20181;-63
2020/12/24 00:06:01;;;;;;;4.03;1.30;;;4.00;99.90;;;;;;5072845;28;20201;-65
2020/12/24 00:08:26;;;;;;;4.13;1.30;;;3.90;99.90;;;;;;5073276;28;20260;-65
2020/12/24 00:10:51;;;;;;;4.60;1.53;;;3.90;99.90;;;;;;5072019;28;20196;-64
2020/12/24 00:13:17;;;;;;;2.60;0.97;;;4.00;99.90;;;;;;5073169;28;20180;-65
2020/12/24 00:15:43;;;;;;;5.33;1.30;;;4.00;99.90;;;;;;5072905;28;20232;-66
2020/12/24 00:18:09;;;;;;;5.30;1.10;;;4.00;99.90;;;;;;5072905;28;20193;-65
2020/12/24 00:20:35;;;;;;;3.57;1.27;;;3.90;99.90;;;;;;5072010;28;20209;-65
2020/12/24 00:23:01;;;;;;;2.40;1.30;;;3.90;99.90;;;;;;5072981;28;20185;-61
2020/12/24 00:25:26;;;;;;;2.97;1.20;;;3.90;99.90;;;;;;5072790;28;20205;-61
2020/12/24 00:27:51;;;;;;;1.90;1.27;;;3.90;99.90;;;;;;5072488;28;20213;-62
2020/12/24 00:30:17;;;;;;;4.13;1.20;;;3.90;99.90;;;;;;5072946;28;20193;-62
2020/12/24 00:32:43;;;;;;;2.87;0.80;;;3.90;99.90;;;;;;5071822;28;20252;-62
2020/12/24 00:35:08;;;;;;;2.73;1.00;;;3.90;99.90;;;;;;5072599;28;20196;-61
2020/12/24 00:37:34;;;;;;;3.07;1.10;;;3.90;99.90;;;;;;5072427;28;20271;-62
2020/12/24 00:39:59;;;;;;;6.07;1.50;;;3.90;99.90;;;;;;5072916;28;20172;-62
2020/12/24 00:42:25;;;;;;;4.93;1.50;;;3.90;99.90;;;;;;5071476;28;20216;-62
2020/12/24 00:44:50;;;;;;;6.27;1.20;;;3.90;99.90;;;;;;5072240;28;20192;-61
2020/12/24 00:47:16;;;;;;;4.30;1.43;;;3.90;99.90;;;;;;5072209;28;20720;-61
2020/12/24 00:49:41;;;;;;;2.30;1.13;;;3.80;99.90;;;;;;5072375;28;20177;-61
2020/12/24 00:52:07;;;;;;;3.50;1.27;;;3.90;99.90;;;;;;5072180;28;20188;-61
2020/12/24 00:54:32;;;;;;;9.37;1.50;;;3.90;99.90;;;;;;5071505;28;20211;-61
2020/12/24 00:56:58;;;;;;;2.97;1.13;;;3.90;99.90;;;;;;5077605;28;20201;-65
2020/12/24 00:59:23;;;;;;;3.87;1.10;;;3.90;99.90;;;;;;5079891;28;20181;-68
2020/12/24 01:01:49;;;;;;;4.93;1.20;;;3.90;99.90;;;;;;5073571;28;20293;-61
2020/12/24 01:04:14;;;;;;;5.90;1.43;;;3.90;99.90;;;;;;5072096;28;20220;-61
2020/12/24 01:06:40;;;;;;;3.30;0.93;;;3.90;99.90;;;;;;5072455;28;20201;-62
2020/12/24 01:09:05;;;;;;;5.63;1.10;;;4.00;99.90;;;;;;5071908;28;20552;-61
2020/12/24 01:11:31;;;;;;;3.30;1.27;;;4.00;99.90;;;;;;5071508;28;20181;-61
2020/12/24 01:13:57;;;;;;;3.87;1.30;;;4.00;99.90;;;;;;5071986;28;20238;-61
2020/12/24 01:16:23;;;;;;;5.30;1.43;;;4.00;99.90;;;;;;5071363;28;20205;-61
2020/12/24 01:18:49;;;;;;;5.40;1.30;;;4.00;99.90;;;;;;5063925;28;20186;-61
2020/12/24 01:21:14;;;;;;;6.30;1.63;;;4.00;99.90;;;;;;5071031;28;20315;-62
2020/12/24 01:23:40;;;;;;;2.60;1.07;;;4.00;99.90;;;;;;5071964;28;20215;-61
2020/12/24 01:26:08;;;;;;;6.40;1.40;;;4.00;99.90;;;;;;5072154;28;20730;-62
2020/12/24 01:28:34;;;;;;;8.83;1.33;;;4.00;99.90;;;;;;5071728;28;20256;-61
2020/12/24 01:30:59;;;;;;;4.50;1.20;;;4.00;99.90;;;;;;5070801;28;20610;-62
2020/12/24 01:33:26;;;;;;;5.10;1.30;;;4.00;99.90;;;;;;5071353;28;20184;-62
2020/12/24 01:35:51;;;;;;;6.20;1.67;;;4.00;99.90;;;;;;5071302;28;20688;-61
2020/12/24 01:38:17;;;;;;;3.07;1.10;;;4.00;99.90;;;;;;5071284;28;20184;-62
2020/12/24 01:40:42;;;;;;;3.60;1.20;;;4.00;99.90;;;;;;5070984;28;20236;-62
2020/12/24 01:43:08;;;;;;;2.30;1.20;;;4.00;99.90;;;;;;5071738;28;20181;-61
2020/12/24 01:45:33;;;;;;;4.60;1.27;;;4.00;99.90;;;;;;5071620;28;20757;-61
2020/12/24 01:47:59;;;;;;;3.93;1.10;;;4.00;99.90;;;;;;5071017;28;20211;-62
2020/12/24 01:50:25;;;;;;;6.87;1.33;;;4.10;99.90;;;;;;5070525;28;20181;-61
2020/12/24 01:52:51;;;;;;;2.80;1.07;;;4.10;99.90;;;;;;5070957;28;20201;-62
2020/12/24 01:55:17;;;;;;;5.83;1.33;;;4.10;99.90;;;;;;5071447;28;20219;-62
2020/12/24 01:57:42;;;;;;;2.30;1.20;;;4.10;99.90;;;;;;5072056;28;20208;-61
2020/12/24 02:00:09;;;;;;;3.57;1.40;;;4.10;99.90;;;;;;5071468;28;20680;-62
2020/12/24 02:02:35;;;;;;;2.50;1.20;;;4.10;99.90;;;;;;5070427;28;20530;-61
2020/12/24 02:05:01;;;;;;;5.43;1.33;;;4.10;99.90;;;;;;5069891;28;20205;-61
2020/12/24 02:07:26;;;;;;;4.77;1.10;;;4.10;99.90;;;;;;5070810;28;20201;-61
2020/12/24 02:09:52;;;;;;;3.77;1.27;;;4.10;99.90;;;;;;5070703;28;20192;-61
2020/12/24 02:12:18;;;;;;;8.43;1.77;;;4.20;99.90;;;;;;5069699;28;20197;-61
2020/12/24 02:14:45;;;;;;;5.90;1.87;;;4.20;99.90;;;;;;5071176;28;20189;-61
2020/12/24 02:17:11;;;;;;;2.77;1.50;;;4.20;99.90;;;;;;5066866;28;20201;-61
2020/12/24 02:19:37;;;;;;;5.83;1.60;;;4.20;99.90;;;;;;5070405;28;20185;-61
2020/12/24 02:22:03;;;;;;;3.20;2.17;;;4.20;99.90;;;;;;5069866;28;20212;-61
2020/12/24 02:24:29;;;;;;;3.00;1.77;;;4.20;99.90;;;;;;5070682;28;20177;-62
2020/12/24 02:26:55;;;;;;;4.03;1.50;;;4.20;99.90;;;;;;5070037;28;20205;-61
2020/12/24 02:29:21;;;;;;;4.73;1.80;;;4.20;99.90;;;;;;5070767;28;20181;-62
2020/12/24 02:31:47;;;;;;;4.20;1.80;;;4.20;99.90;;;;;;5069355;28;20264;-61
2020/12/24 02:34:12;;;;;;;5.53;1.83;;;4.20;99.90;;;;;;5070171;28;20720;-62
2020/12/24 02:36:38;;;;;;;5.03;1.70;;;4.20;99.90;;;;;;5070205;28;20220;-61
2020/12/24 02:39:04;;;;;;;5.50;1.90;;;4.10;99.90;;;;;;5069869;28;20256;-62
2020/12/24 02:41:30;;;;;;;6.70;1.80;;;4.20;99.90;;;;;;5069343;28;20212;-61
2020/12/24 02:43:55;;;;;;;4.73;1.80;;;4.20;99.90;;;;;;5061003;28;20177;-61
2020/12/24 02:46:20;;;;;;;2.80;1.70;;;4.20;99.90;;;;;;5069760;28;20197;-61
2020/12/24 02:48:46;;;;;;;3.13;1.50;;;4.10;99.90;;;;;;5069874;28;20177;-61
2020/12/24 02:51:13;;;;;;;6.07;1.80;;;4.20;99.90;;;;;;5069369;28;20276;-61
2020/12/24 02:53:39;;;;;;;4.07;1.67;;;4.20;99.90;;;;;;5069842;28;20264;-61
2020/12/24 02:56:04;;;;;;;2.97;1.73;;;4.20;99.90;;;;;;5069950;28;20935;-60
2020/12/24 02:58:29;;;;;;;2.93;1.43;;;4.20;99.90;;;;;;5070030;28;20221;-62
2020/12/24 03:00:55;;;;;;;3.13;1.37;;;4.30;99.90;;;;;;5068734;28;20219;-62
2020/12/24 03:03:23;;;;;;;3.30;1.70;;;4.20;99.90;;;;;;5069863;28;20176;-62
2020/12/24 03:05:49;;;;;;;2.00;1.23;;;4.20;99.90;;;;;;5069688;28;20614;-62
2020/12/24 03:08:14;;;;;;;3.03;1.07;;;4.20;99.90;;;;;;5069776;28;20434;-62
2020/12/24 09:23:33;;;;;;;1.90;0.80;;;3.90;99.90;;;;;;5086682;28;20491;-68
2020/12/24 09:26:00;;;;;;;0.70;0.70;;;3.90;99.90;;;;;;5056630;28;20576;-69
2020/12/24 09:28:27;;;;;;;2.00;0.80;;;4.00;99.90;;;;;;5051186;28;20197;-69
2020/12/24 09:30:55;;;;;;;1.70;1.20;;;4.00;99.90;;;;;;5067981;28;20257;-69
2020/12/24 09:33:21;;;;;;;1.00;0.97;;;4.10;99.90;;;;;;5055921;28;20541;-69
2020/12/24 09:35:46;;;;;;;2.43;1.10;;;4.10;99.90;;;;;;5081803;22;20282;-67
2020/12/24 09:38:12;;;;;;;3.57;1.30;;;4.20;99.90;;;;;;5067299;28;20219;-67
2020/12/24 09:40:38;;;;;;;3.13;1.13;;;4.20;99.90;;;;;;5065865;28;20223;-66
2020/12/24 09:43:04;;;;;;;1.10;1.00;;;4.10;99.90;;;;;;5076809;28;20205;-63
2020/12/24 09:45:30;;;;;;;1.37;1.10;;;4.10;99.90;;;;;;5066166;28;20185;-63
2020/12/24 09:47:56;;;;;;;1.07;1.07;;;4.10;99.90;;;;;;5050713;28;20666;-63
2020/12/24 09:50:21;;;;;;;2.00;1.50;;;4.20;99.90;;;;;;5043775;28;20510;-63
2020/12/24 09:52:47;;;;;;;7.93;4.27;;;4.30;99.90;;;;;;5045754;28;20178;-64
2020/12/24 09:55:13;;;;;;;1.87;1.77;;;4.30;99.90;;;;;;5046483;28;20247;-64
2020/12/24 09:57:38;;;;;;;2.20;1.20;;;4.40;99.90;;;;;;5045958;28;20265;-64
2020/12/24 10:00:06;;;;;;;1.67;1.37;;;4.50;99.90;;;;;;5046514;28;20193;-64
2020/12/24 10:02:31;;;;;;;3.37;1.70;;;4.40;99.90;;;;;;5044973;28;20712;-64
2020/12/24 10:04:57;;;;;;;1.63;1.50;;;4.40;99.90;;;;;;5046933;28;20198;-64
2020/12/24 10:07:23;;;;;;;2.80;2.50;;;4.50;99.90;;;;;;5047570;28;20217;-64
2020/12/24 10:09:53;;;;;;;3.10;1.77;;;4.60;99.90;;;;;;5058583;28;20178;-64
2020/12/24 10:12:23;;;;;;;9.17;8.07;;;4.60;99.90;;;;;;5045811;28;20281;-64
2020/12/24 10:14:49;;;;;;;13.23;10.77;;;4.70;99.90;;;;;;5044410;28;20206;-63
2020/12/24 10:17:15;;;;;;;3.73;2.80;;;4.80;99.90;;;;;;5046132;28;20556;-63
2020/12/24 10:19:44;;;;;;;3.13;1.40;;;4.70;99.90;;;;;;5052080;28;20178;-66
2020/12/24 10:22:11;;;;;;;2.57;1.10;;;4.80;99.90;;;;;;5047039;28;20186;-66
2020/12/24 10:24:38;;;;;;;1.77;1.30;;;4.70;99.90;;;;;;5049803;28;20220;-66
2020/12/24 10:27:04;;;;;;;2.30;1.03;;;4.80;99.90;;;;;;5050820;28;20174;-66
2020/12/24 10:29:30;;;;;;;2.40;1.70;;;4.90;99.90;;;;;;5050307;28;20293;-67
2020/12/24 10:31:55;;;;;;;2.47;1.70;;;5.00;99.90;;;;;;5050463;28;20209;-68
2020/12/24 10:34:21;;;;;;;2.10;1.80;;;5.00;99.90;;;;;;5021805;28;20182;-70
2020/12/24 10:36:46;;;;;;;3.23;2.00;;;5.00;99.90;;;;;;5034525;28;20262;-66
2020/12/24 10:39:12;;;;;;;2.83;2.07;;;5.00;99.90;;;;;;5032781;28;20186;-67
2020/12/24 10:41:39;;;;;;;3.27;1.57;;;5.00;99.90;;;;;;5032460;28;20209;-64
2020/12/24 10:44:05;;;;;;;3.57;2.00;;;4.90;99.90;;;;;;5032524;28;20193;-66
2020/12/24 10:46:31;;;;;;;2.57;1.40;;;5.00;99.90;;;;;;5029969;28;20543;-67
2020/12/24 10:48:57;;;;;;;2.93;1.57;;;5.00;99.90;;;;;;5019997;28;20202;-67
2020/12/24 10:51:23;;;;;;;3.43;1.73;;;5.00;99.90;;;;;;5043624;28;20259;-66
2020/12/24 10:53:48;;;;;;;5.27;1.53;;;5.00;99.90;;;;;;5041973;28;20175;-68
2020/12/24 10:56:15;;;;;;;3.17;1.40;;;5.00;99.90;;;;;;5031265;28;20373;-68
2020/12/24 10:58:41;;;;;;;2.83;1.60;;;5.10;99.90;;;;;;5032500;28;20256;-67
2020/12/24 11:01:15;;;;;;;3.07;1.57;;;5.10;99.90;;;;;;5032242;28;20209;-65
2020/12/24 11:03:41;;;;;;;3.20;2.00;;;5.10;99.90;;;;;;5032983;28;20611;-68
2020/12/24 11:06:07;;;;;;;2.80;1.97;;;5.10;99.90;;;;;;5033440;28;20195;-64
2020/12/24 11:08:34;;;;;;;3.33;1.70;;;5.20;99.90;;;;;;5028851;28;20191;-66
2020/12/24 11:11:00;;;;;;;3.43;2.00;;;5.30;99.90;;;;;;5032436;28;20175;-66
2020/12/24 11:13:26;;;;;;;3.40;2.10;;;5.30;99.90;;;;;;5033153;28;20174;-67
2020/12/24 11:15:52;;;;;;;5.03;2.37;;;5.20;99.90;;;;;;5032824;28;20723;-67
2020/12/24 11:18:18;;;;;;;6.33;2.90;;;5.10;99.90;;;;;;5032571;28;20258;-67
2020/12/24 11:20:43;;;;;;;5.00;3.30;;;5.10;99.90;;;;;;5032018;28;20250;-66
2020/12/24 11:23:09;;;;;;;5.33;3.77;;;5.10;99.90;;;;;;5032733;28;20350;-65
2020/12/24 11:25:34;;;;;;;11.07;4.33;;;5.10;99.90;;;;;;5032861;28;20269;-67
2020/12/24 11:28:00;;;;;;;9.43;4.67;;;5.20;99.90;;;;;;5032512;28;20175;-67
2020/12/24 11:30:27;;;;;;;8.83;5.13;;;5.30;99.90;;;;;;5032097;28;20227;-67
2020/12/24 11:32:52;;;;;;;8.37;5.30;;;5.30;99.90;;;;;;5032352;28;20179;-67
2020/12/24 11:35:18;;;;;;;8.27;4.63;;;5.30;99.90;;;;;;5014543;28;20216;-67
2020/12/24 11:37:43;;;;;;;6.53;4.70;;;5.40;99.90;;;;;;5032660;28;20174;-67
2020/12/24 11:40:08;;;;;;;7.53;4.83;;;5.40;99.90;;;;;;5032620;28;20175;-68
2020/12/24 11:42:34;;;;;;;8.73;4.60;;;5.40;99.90;;;;;;5031550;28;20332;-67
2020/12/24 11:45:00;;;;;;;7.10;4.00;;;5.40;99.90;;;;;;5031118;28;20662;-67
2020/12/24 11:47:25;;;;;;;4.20;3.30;;;5.50;99.90;;;;;;5032207;28;20177;-67
2020/12/24 11:49:51;;;;;;;4.73;3.57;;;5.40;99.90;;;;;;5031999;28;20247;-65
2020/12/24 11:52:16;;;;;;;3.80;2.53;;;5.40;99.90;;;;;;5031394;28;20167;-67
2020/12/24 11:54:42;;;;;;;4.13;3.40;;;5.50;99.90;;;;;;5031832;28;20178;-65
2020/12/24 11:57:08;;;;;;;8.20;3.53;;;5.50;99.90;;;;;;5032228;28;20249;-65
2020/12/24 11:59:33;;;;;;;4.33;2.97;;;5.50;99.90;;;;;;5032205;28;20191;-65
2020/12/24 12:01:59;;;;;;;5.27;2.67;;;5.50;99.90;;;;;;5031460;28;20281;-66
2020/12/24 12:04:24;;;;;;;5.13;2.63;;;5.50;99.90;;;;;;5031977;28;20224;-66
2020/12/24 12:06:50;;;;;;;5.70;2.80;;;5.50;99.90;;;;;;5032251;28;20166;-65
2020/12/24 12:09:16;;;;;;;4.67;2.37;;;5.50;99.90;;;;;;5032548;28;20650;-67
2020/12/24 12:11:42;;;;;;;4.93;3.10;;;5.50;99.90;;;;;;5031504;28;20638;-68
2020/12/24 12:14:07;;;;;;;4.83;3.13;;;5.50;99.90;;;;;;5031624;28;20190;-68
2020/12/24 12:16:33;;;;;;;4.63;3.33;;;5.60;99.90;;;;;;5031863;28;20462;-65
2020/12/24 12:18:58;;;;;;;4.97;2.67;;;5.60;99.90;;;;;;5031799;28;20337;-66
2020/12/24 12:21:24;;;;;;;4.90;3.33;;;5.70;99.90;;;;;;5031468;28;20261;-66
2020/12/24 12:23:49;;;;;;;6.63;3.00;;;5.60;99.90;;;;;;5031676;28;20186;-66
2020/12/24 12:26:15;;;;;;;8.53;3.93;;;5.60;99.90;;;;;;5029876;28;20194;-67
2020/12/24 12:28:43;;;;;;;4.83;3.17;;;5.60;99.90;;;;;;5017733;28;20181;-66
2020/12/24 12:31:24;;;;;;;5.53;3.10;;;5.60;99.90;;;;;;5030349;28;20184;-66
2020/12/24 12:33:50;;;;;;;5.67;2.73;;;5.60;99.90;;;;;;5030582;28;20178;-66
2020/12/24 12:36:18;;;;;;;7.07;2.53;;;5.50;99.90;;;;;;5031009;28;20384;-66
2020/12/24 12:38:48;;;;;;;4.80;3.00;;;5.50;99.90;;;;;;5030474;28;20202;-66
2020/12/24 12:41:15;;;;;;;6.30;3.50;;;5.60;99.90;;;;;;5028937;28;20658;-66
2020/12/24 12:43:41;;;;;;;5.97;2.70;;;5.50;99.90;;;;;;5028987;28;20549;-67
2020/12/24 12:46:07;;;;;;;6.17;3.10;;;5.50;99.90;;;;;;5044135;28;20677;-66
2020/12/24 12:48:33;;;;;;;5.77;3.10;;;5.40;99.90;;;;;;5050718;28;20223;-67
2020/12/24 12:50:59;;;;;;;6.83;2.70;;;5.40;99.90;;;;;;5050456;28;20190;-66
2020/12/24 12:53:24;;;;;;;7.47;2.90;;;5.40;99.90;;;;;;5050906;28;20178;-67
2020/12/24 12:55:50;;;;;;;8.03;3.47;;;5.40;99.90;;;;;;5046905;28;20202;-68
2020/12/24 12:58:15;;;;;;;8.40;4.03;;;5.40;99.90;;;;;;5020768;28;20195;-67
2020/12/24 13:00:41;;;;;;;8.47;3.63;;;5.40;99.90;;;;;;5010375;28;20464;-67
2020/12/24 13:03:06;;;;;;;5.67;3.27;;;5.40;99.90;;;;;;5013146;28;20217;-67
2020/12/24 13:05:33;;;;;;;4.13;2.40;;;5.50;99.90;;;;;;5012066;28;20564;-67
2020/12/24 13:07:59;;;;;;;5.03;2.57;;;5.50;99.90;;;;;;5011243;28;20164;-67
2020/12/24 13:10:24;;;;;;;2.90;2.07;;;5.50;99.90;;;;;;5010486;28;20174;-67
2020/12/24 13:12:50;;;;;;;6.73;2.93;;;5.50;99.90;;;;;;5014517;28;20685;-67
2020/12/24 13:15:15;;;;;;;5.13;2.53;;;5.50;99.90;;;;;;5031804;28;20206;-67
2020/12/24 13:17:41;;;;;;;6.20;4.60;;;5.50;99.90;;;;;;5010686;28;20179;-66
2020/12/24 13:20:06;;;;;;;4.47;2.17;;;5.50;99.90;;;;;;5011082;28;20175;-67
2020/12/24 13:22:31;;;;;;;4.97;2.30;;;5.50;99.90;;;;;;5010174;28;20666;-67
2020/12/24 13:24:57;;;;;;;6.57;2.60;;;5.50;99.90;;;;;;5011044;28;20183;-67
2020/12/24 13:27:22;;;;;;;4.63;2.47;;;5.40;99.90;;;;;;5010867;28;20613;-67
2020/12/24 13:29:48;;;;;;;7.73;2.80;;;5.40;99.90;;;;;;5010847;28;20182;-67
2020/12/24 13:32:14;;;;;;;6.47;2.70;;;5.40;99.90;;;;;;5010146;28;20197;-67
2020/12/24 13:34:39;;;;;;;6.73;3.07;;;5.30;99.90;;;;;;5010707;28;20225;-68
2020/12/24 13:37:05;;;;;;;4.53;2.50;;;5.30;99.90;;;;;;5010740;28;20517;-69
2020/12/24 13:39:30;;;;;;;8.03;2.40;;;5.30;99.90;;;;;;5010839;28;20171;-67
2020/12/24 13:41:56;;;;;;;5.17;2.77;;;5.30;99.90;;;;;;5009727;28;20199;-67
2020/12/24 13:44:21;;;;;;;7.27;2.20;;;5.20;99.90;;;;;;5010559;28;20175;-66
2020/12/24 13:46:51;;;;;;;4.10;1.50;;;5.20;99.90;;;;;;5010339;28;20269;-67
2020/12/24 13:49:18;;;;;;;3.90;1.70;;;5.20;99.90;;;;;;5010929;28;20675;-67
2020/12/24 13:51:43;;;;;;;3.30;1.60;;;5.20;99.90;;;;;;5010108;28;20178;-67
2020/12/24 13:54:09;;;;;;;3.10;1.80;;;5.20;99.90;;;;;;5009221;28;20175;-67
2020/12/24 13:56:34;;;;;;;3.33;2.23;;;5.30;99.90;;;;;;5010554;28;20191;-68
2020/12/24 13:58:59;;;;;;;3.10;1.70;;;5.20;99.90;;;;;;5010333;28;20266;-66
2020/12/24 14:01:25;;;;;;;2.90;1.50;;;5.30;99.90;;;;;;5009629;28;20549;-68
2020/12/24 14:03:50;;;;;;;2.70;1.30;;;5.30;99.90;;;;;;5010621;28;20211;-66
2020/12/24 14:06:16;;;;;;;2.40;1.50;;;5.30;99.90;;;;;;5010412;28;20672;-67
2020/12/24 14:08:41;;;;;;;3.63;1.40;;;5.30;99.90;;;;;;5012136;28;20163;-67
2020/12/24 14:11:07;;;;;;;5.13;1.03;;;5.40;99.90;;;;;;5017033;28;20221;-68
2020/12/24 14:13:33;;;;;;;2.53;1.30;;;5.40;99.90;;;;;;5020223;28;20171;-66
2020/12/24 14:16:00;;;;;;;2.23;1.17;;;5.40;99.90;;;;;;5019230;28;20701;-67
2020/12/24 14:18:26;;;;;;;4.50;1.50;;;5.40;99.90;;;;;;5019297;28;20262;-67
2020/12/24 14:20:52;;;;;;;4.40;1.40;;;5.40;99.90;;;;;;5018310;28;20209;-66
2020/12/24 14:23:20;;;;;;;5.20;1.80;;;5.40;99.90;;;;;;5016904;28;20202;-67
2020/12/24 14:25:45;;;;;;;3.43;1.40;;;5.40;99.90;;;;;;5033453;28;20205;-66
2020/12/24 14:28:11;;;;;;;5.00;1.50;;;5.40;99.90;;;;;;5037163;28;20178;-68
2020/12/24 14:30:36;;;;;;;1.60;1.20;;;5.30;99.90;;;;;;5033614;28;20666;-69
2020/12/24 14:33:02;;;;;;;2.00;1.20;;;5.40;99.90;;;;;;5034756;28;20178;-71
2020/12/24 14:35:28;;;;;;;2.73;1.33;;;5.30;99.90;;;;;;5033569;28;20218;-70
2020/12/24 14:37:53;;;;;;;1.27;1.00;;;5.30;99.90;;;;;;5033372;28;20221;-67
2020/12/24 14:40:19;;;;;;;4.20;1.23;;;5.40;99.90;;;;;;5033277;28;20729;-67
2020/12/24 14:42:45;;;;;;;2.63;1.37;;;5.40;99.90;;;;;;5032167;28;20205;-67
2020/12/24 14:45:10;;;;;;;2.70;1.53;;;5.40;99.90;;;;;;5033363;28;20198;-68
2020/12/24 14:47:36;;;;;;;4.53;1.77;;;5.40;99.90;;;;;;5031398;28;20186;-67
2020/12/24 14:50:02;;;;;;;4.50;1.73;;;5.40;99.90;;;;;;5028317;28;20174;-68
2020/12/24 14:52:27;;;;;;;2.03;1.47;;;5.40;99.90;;;;;;5032733;28;20261;-66
2020/12/24 14:54:53;;;;;;;3.13;1.60;;;5.40;99.90;;;;;;5032449;28;20293;-61
2020/12/24 14:57:18;;;;;;;3.13;1.20;;;5.40;99.90;;;;;;5039084;28;20473;-63
2020/12/24 14:59:44;;;;;;;1.83;1.40;;;5.40;99.90;;;;;;5046944;28;20583;-64
2020/12/24 15:02:10;;;;;;;2.23;1.90;;;5.30;99.90;;;;;;5045161;28;20236;-64
2020/12/24 15:04:35;;;;;;;4.23;1.30;;;5.30;99.90;;;;;;5040008;28;20455;-66
2020/12/24 15:07:01;;;;;;;3.70;1.73;;;5.30;99.90;;;;;;5048856;28;20174;-64
2020/12/24 15:09:26;;;;;;;1.60;1.10;;;5.30;99.90;;;;;;5035964;28;20253;-64
2020/12/24 15:11:52;;;;;;;2.70;1.20;;;5.30;99.90;;;;;;5045638;28;20179;-65
2020/12/24 15:14:17;;;;;;;2.23;1.23;;;5.40;99.90;;;;;;5044818;28;20174;-64
2020/12/24 15:16:42;;;;;;;3.00;1.37;;;5.40;99.90;;;;;;5038757;28;20623;-64
2020/12/24 15:19:08;;;;;;;1.77;1.40;;;5.40;99.90;;;;;;5048873;28;20189;-65
2020/12/24 15:21:34;;;;;;;1.00;1.00;;;5.30;99.90;;;;;;5036355;28;20273;-64
2020/12/24 15:23:59;;;;;;;1.63;1.20;;;5.30;99.90;;;;;;5044573;28;20381;-64
2020/12/24 15:26:24;;;;;;;1.17;1.00;;;5.40;99.90;;;;;;5043372;28;20564;-65
2020/12/24 15:29:02;;;;;;;3.07;1.60;;;5.40;99.90;;;;;;5037625;28;20190;-65
2020/12/24 15:31:27;;;;;;;1.57;1.30;;;5.40;99.90;;;;;;5048644;28;20518;-65
2020/12/24 15:33:53;;;;;;;3.77;1.40;;;5.40;99.90;;;;;;5030093;28;20182;-63
2020/12/24 15:36:18;;;;;;;2.67;1.57;;;5.40;99.90;;;;;;5059460;22;20221;-61
2020/12/24 15:38:44;;;;;;;2.50;1.50;;;5.50;99.90;;;;;;5054648;28;20674;-64
2020/12/24 15:41:10;;;;;;;3.67;1.87;;;5.50;99.90;;;;;;5057613;28;20178;-64
2020/12/24 15:43:35;;;;;;;3.03;1.43;;;5.40;99.90;;;;;;5056100;28;20208;-61
2020/12/24 15:46:01;;;;;;;1.63;0.90;;;5.40;99.90;;;;;;5064788;28;20193;-62
2020/12/24 15:48:26;;;;;;;2.93;1.23;;;5.40;99.90;;;;;;5055657;28;20235;-62
2020/12/24 15:50:52;;;;;;;2.43;1.20;;;5.50;99.90;;;;;;5058978;28;20607;-61
2020/12/24 15:53:17;;;;;;;1.53;1.13;;;5.40;99.90;;;;;;5062284;28;20184;-61
2020/12/24 15:55:43;;;;;;;2.93;1.30;;;5.50;99.90;;;;;;5050767;28;20208;-62
2020/12/24 15:58:09;;;;;;;2.87;1.70;;;5.50;99.90;;;;;;5050659;28;20186;-62
2020/12/24 16:00:35;;;;;;;1.93;1.60;;;5.50;99.90;;;;;;5057626;28;20620;-62
2020/12/24 16:03:00;;;;;;;2.17;1.07;;;5.50;99.90;;;;;;5048749;28;20201;-62
2020/12/24 16:05:27;;;;;;;1.20;1.10;;;5.50;99.90;;;;;;5053149;28;20590;-62
2020/12/24 16:07:53;;;;;;;1.83;1.33;;;5.50;99.90;;;;;;5063767;28;20584;-62
2020/12/24 16:10:18;;;;;;;1.33;1.20;;;5.50;99.90;;;;;;5054890;28;20181;-62
2020/12/24 16:12:43;;;;;;;2.13;1.20;;;5.50;99.90;;;;;;5054544;28;20173;-62
2020/12/24 16:15:09;;;;;;;2.27;1.00;;;5.40;99.90;;;;;;5067428;28;20243;-62
2020/12/24 16:17:34;;;;;;;1.63;1.00;;;5.40;99.90;;;;;;5055097;28;20515;-62
2020/12/24 16:20:00;;;;;;;1.57;0.90;;;5.40;99.90;;;;;;5063053;28;20165;-63
2020/12/24 16:22:25;;;;;;;2.83;1.10;;;5.40;99.90;;;;;;5061287;28;20569;-61
2020/12/24 16:24:51;;;;;;;3.03;1.40;;;5.40;99.90;;;;;;5055679;28;20170;-61
2020/12/24 16:27:16;;;;;;;2.00;1.20;;;5.40;99.90;;;;;;5066835;28;20684;-63
2020/12/24 16:29:42;;;;;;;1.77;1.23;;;5.50;99.90;;;;;;5055916;28;20435;-62
2020/12/24 16:32:12;;;;;;;1.17;0.90;;;5.50;99.90;;;;;;5060518;28;20170;-62
2020/12/24 16:34:38;;;;;;;1.67;1.03;;;5.40;99.90;;;;;;5064071;28;20222;-63
2020/12/24 16:37:03;;;;;;;1.63;0.90;;;5.40;99.90;;;;;;5053632;28;20213;-60
2020/12/24 16:39:29;;;;;;;0.80;0.80;;;5.40;99.90;;;;;;5066666;28;20249;-61
2020/12/24 16:42:00;;;;;;;2.87;1.00;;;5.40;99.90;;;;;;5056656;28;20652;-62
2020/12/24 16:44:25;;;;;;;2.23;1.10;;;5.40;99.90;;;;;;5059073;28;20174;-63
2020/12/24 16:46:56;;;;;;;2.23;1.13;;;5.40;99.90;;;;;;5065364;28;20803;-61
2020/12/24 16:49:22;;;;;;;3.10;2.20;;;5.40;99.90;;;;;;5053625;28;20661;-62
2020/12/24 16:51:47;;;;;;;2.73;1.53;;;5.40;99.90;;;;;;5061924;28;20173;-62
2020/12/24 16:54:13;;;;;;;2.63;1.40;;;5.40;99.90;;;;;;5059939;28;20200;-62
2020/12/24 16:56:38;;;;;;;2.20;1.30;;;5.40;99.90;;;;;;5068011;28;20197;-61
2020/12/24 16:59:04;;;;;;;1.60;1.10;;;5.40;99.90;;;;;;5053505;28;20181;-61
2020/12/24 17:01:29;;;;;;;1.63;1.03;;;5.40;99.90;;;;;;5065593;28;20517;-63
2020/12/24 17:03:55;;;;;;;3.30;0.90;;;5.40;99.90;;;;;;5056940;28;20181;-61
2020/12/24 17:06:20;;;;;;;2.40;1.07;;;5.40;99.90;;;;;;5065099;28;20193;-62
2020/12/24 17:08:46;;;;;;;1.03;0.83;;;5.40;99.90;;;;;;5068137;28;20176;-65
2020/12/24 17:11:19;;;;;;;1.13;0.90;;;5.40;99.90;;;;;;5052902;28;20177;-63
2020/12/24 17:13:44;;;;;;;3.60;1.13;;;5.40;99.90;;;;;;5063905;28;20544;-63
2020/12/24 17:16:10;;;;;;;1.73;0.90;;;5.40;99.90;;;;;;5050790;28;20200;-64
2020/12/24 17:18:35;;;;;;;3.20;0.80;;;5.40;99.90;;;;;;5057529;28;20216;-63
2020/12/24 17:21:01;;;;;;;1.40;1.00;;;5.40;99.90;;;;;;5055675;28;20182;-62
2020/12/24 17:23:26;;;;;;;1.87;0.80;;;5.40;99.90;;;;;;5060525;28;20714;-63
2020/12/24 17:25:52;;;;;;;1.53;0.63;;;5.40;99.90;;;;;;5068333;28;20200;-61
2020/12/24 17:28:17;;;;;;;1.20;0.90;;;5.40;99.90;;;;;;5055165;28;20265;-61
2020/12/24 17:30:43;;;;;;;0.93;0.80;;;5.40;99.90;;;;;;5055587;28;20236;-61
2020/12/24 17:33:08;;;;;;;1.10;0.83;;;5.40;99.90;;;;;;5068187;28;20542;-61
2020/12/24 17:35:34;;;;;;;1.97;0.97;;;5.40;99.90;;;;;;5053799;28;20209;-61
2020/12/24 17:37:59;;;;;;;1.40;0.70;;;5.40;99.90;;;;;;5045710;28;20788;-60
2020/12/24 17:40:27;;;;;;;1.03;0.80;;;5.40;99.90;;;;;;5056141;28;20209;-60
2020/12/24 17:42:53;;;;;;;2.77;1.17;;;5.40;99.90;;;;;;5053880;28;20262;-60
2020/12/24 17:45:18;;;;;;;2.10;0.90;;;5.40;99.90;;;;;;5069705;28;20184;-62
2020/12/24 17:47:43;;;;;;;1.30;1.20;;;5.40;99.90;;;;;;5056220;28;20176;-62
2020/12/24 17:50:09;;;;;;;1.30;1.10;;;5.40;99.90;;;;;;5061561;28;20252;-62
2020/12/24 17:52:34;;;;;;;1.27;1.00;;;5.40;99.90;;;;;;5063495;28;20188;-61
2020/12/24 17:55:00;;;;;;;2.70;1.40;;;5.30;99.90;;;;;;5067515;28;20531;-61
2020/12/24 17:57:25;;;;;;;2.10;1.27;;;5.30;99.90;;;;;;5065202;28;20183;-61
2020/12/24 17:59:51;;;;;;;1.97;0.90;;;5.30;99.90;;;;;;5055492;28;20197;-61
2020/12/24 18:02:17;;;;;;;0.60;0.60;;;5.30;99.90;;;;;;5063284;28;20196;-65
2020/12/24 18:04:42;;;;;;;2.77;0.80;;;5.30;99.90;;;;;;5064780;28;20185;-61
2020/12/24 18:07:08;;;;;;;1.90;1.43;;;5.30;99.90;;;;;;5069576;28;20196;-63
2020/12/24 18:09:37;;;;;;;1.13;0.90;;;5.30;99.90;;;;;;5057692;28;20169;-63
2020/12/24 18:12:03;;;;;;;3.00;0.93;;;5.30;99.90;;;;;;5063172;28;20214;-62
2020/12/24 18:14:28;;;;;;;2.60;0.90;;;5.30;99.90;;;;;;5061483;28;20193;-63
2020/12/24 18:16:55;;;;;;;1.80;1.10;;;5.30;99.90;;;;;;5055407;28;20248;-62
2020/12/24 18:19:20;;;;;;;0.97;0.87;;;5.30;99.90;;;;;;5062184;28;20642;-62
2020/12/24 18:21:54;;;;;;;1.90;0.90;;;5.30;99.90;;;;;;5062937;28;20197;-63
2020/12/24 18:24:21;;;;;;;1.90;1.67;;;5.40;99.90;;;;;;5058945;28;20550;-62
2020/12/24 18:26:47;;;;;;;0.93;0.93;;;5.40;99.90;;;;;;5050753;28;20212;-64
2020/12/24 18:29:12;;;;;;;1.27;1.03;;;5.40;99.90;;;;;;5055666;28;20615;-63
2020/12/24 18:31:38;;;;;;;2.27;1.30;;;5.30;99.90;;;;;;5057767;28;20175;-63
2020/12/24 18:34:03;;;;;;;1.03;0.73;;;5.30;99.90;;;;;;5052380;28;20665;-63
2020/12/24 18:36:29;;;;;;;1.00;0.90;;;5.30;99.90;;;;;;5051497;28;20214;-63
2020/12/24 18:38:54;;;;;;;2.50;1.00;;;5.20;99.90;;;;;;5052789;28;20582;-62
2020/12/24 18:41:20;;;;;;;1.97;1.03;;;5.20;99.90;;;;;;5049117;28;20453;-62
2020/12/24 18:43:46;;;;;;;0.93;0.90;;;5.30;99.90;;;;;;5050924;28;20201;-63
2020/12/24 18:46:15;;;;;;;1.10;1.00;;;5.30;99.90;;;;;;5049488;28;20197;-63
2020/12/24 18:48:43;;;;;;;1.57;0.80;;;5.30;99.90;;;;;;5047877;28;20557;-63
2020/12/24 18:51:16;;;;;;;2.10;1.00;;;5.30;99.90;;;;;;5050814;28;20169;-63
2020/12/24 18:53:43;;;;;;;1.23;0.90;;;5.30;99.90;;;;;;5057138;28;20649;-60
2020/12/24 18:56:10;;;;;;;1.53;0.90;;;5.30;99.90;;;;;;5051468;28;20657;-62
2020/12/24 18:58:35;;;;;;;1.33;0.80;;;5.30;99.90;;;;;;5055407;28;20177;-61
2020/12/24 19:01:02;;;;;;;1.17;0.93;;;5.30;99.90;;;;;;5050691;28;20189;-61
2020/12/24 19:03:28;;;;;;;1.50;0.90;;;5.30;99.90;;;;;;5043738;28;20201;-62